createdAt,value
2022-12-19T00:01:28.873Z,187.93
2022-12-19T00:04:33.919Z,126.50
2022-12-19T00:07:36.364Z,148.23
2022-12-19T00:10:38.560Z,122.57
2022-12-19T00:13:41.586Z,124.77
2022-12-19T00:16:43.870Z,115.97
2022-12-19T00:19:46.379Z,117.18
2022-12-19T00:22:48.559Z,156.68
2022-12-19T00:25:53.194Z,116.88
2022-12-19T00:28:57.255Z,112.00
2022-12-19T00:31:59.917Z,112.73
2022-12-19T00:35:02.182Z,107.85
2022-12-19T00:38:04.660Z,118.88
2022-12-19T00:41:10.997Z,104.93
2022-12-19T00:44:14.198Z,110.60
2022-12-19T00:47:16.509Z,126.33
2022-12-19T00:50:18.659Z,105.10
2022-12-19T00:53:20.844Z,131.90
2022-12-19T00:56:33.489Z,133.90
2022-12-19T00:59:41.769Z,138.77
2022-12-19T01:02:44.137Z,109.50
2022-12-19T01:05:46.337Z,100.10
2022-12-19T01:08:49.325Z,109.93
2022-12-19T01:12:24.859Z,108.30
2022-12-19T01:15:28.420Z,122.27
2022-12-19T01:18:30.758Z,137.20
2022-12-19T01:21:34.664Z,101.30
2022-12-19T01:24:36.845Z,99.78
2022-12-19T01:27:39.102Z,143.93
2022-12-19T01:30:41.792Z,144.10
2022-12-19T01:33:43.969Z,130.60
2022-12-19T01:36:47.704Z,103.07
2022-12-19T01:39:51.052Z,109.63
2022-12-19T01:42:53.301Z,104.85
2022-12-19T01:45:59.576Z,109.33
2022-12-19T01:49:02.747Z,126.80
2022-12-19T01:52:07.751Z,97.68
2022-12-19T01:55:11.868Z,96.05
2022-12-19T01:58:14.793Z,94.25
2022-12-19T02:01:18.154Z,94.90
2022-12-19T02:04:20.845Z,96.33
2022-12-19T02:07:24.123Z,103.88
2022-12-19T02:10:27.140Z,97.75
2022-12-19T02:13:30.023Z,89.68
2022-12-19T02:16:32.313Z,86.80
2022-12-19T02:19:44.297Z,91.97
2022-12-19T02:22:49.521Z,103.30
2022-12-19T02:26:11.110Z,90.03
2022-12-19T02:29:17.059Z,88.38
2022-12-19T02:32:22.325Z,85.43
2022-12-19T02:35:37.735Z,100.40
2022-12-19T02:38:47.555Z,86.95
2022-12-19T02:41:57.328Z,87.70
2022-12-19T02:45:01.275Z,87.60
2022-12-19T02:48:08.814Z,86.73
2022-12-19T02:51:12.603Z,75.17
2022-12-19T02:54:15.660Z,104.38
2022-12-19T02:57:30.061Z,110.30
2022-12-19T03:00:36.842Z,108.50
2022-12-19T03:04:01.158Z,83.60
2022-12-19T03:07:25.193Z,115.33
2022-12-19T03:10:47.053Z,110.20
2022-12-19T03:13:53.721Z,117.90
2022-12-19T03:16:56.220Z,119.25
2022-12-19T03:19:58.630Z,110.17
2022-12-19T03:23:00.803Z,94.97
2022-12-19T03:26:05.209Z,102.82
2022-12-19T03:29:17.497Z,103.72
2022-12-19T03:32:20.482Z,113.30
2022-12-19T03:35:25.173Z,104.30
2022-12-19T03:38:28.354Z,98.93
2022-12-19T03:41:49.808Z,99.40
2022-12-19T03:44:53.885Z,86.38
2022-12-19T03:47:58.662Z,109.47
2022-12-19T03:51:19.892Z,99.40
2022-12-19T03:54:22.105Z,100.07
2022-12-19T03:57:28.666Z,100.13
2022-12-19T04:00:31.631Z,102.68
2022-12-19T04:03:34.083Z,100.88
2022-12-19T04:06:37.287Z,85.83
2022-12-19T04:09:41.262Z,100.43
2022-12-19T04:12:47.783Z,94.93
2022-12-19T04:16:03.930Z,88.78
2022-12-19T04:19:12.765Z,89.70
2022-12-19T04:22:19.045Z,87.07
2022-12-19T04:25:29.494Z,88.63
2022-12-19T04:28:36.296Z,81.95
2022-12-19T04:31:38.719Z,93.50
2022-12-19T04:34:42.982Z,80.00
2022-12-19T04:37:45.470Z,92.20
2022-12-19T04:40:47.632Z,89.63
2022-12-19T04:43:49.912Z,92.75
2022-12-19T04:46:52.228Z,106.07
2022-12-19T04:49:54.535Z,97.68
2022-12-19T04:52:57.284Z,100.83
2022-12-19T04:56:04.028Z,100.30
2022-12-19T04:59:06.277Z,89.28
2022-12-19T05:02:08.868Z,86.18
2022-12-19T05:05:11.203Z,83.32
2022-12-19T05:08:13.473Z,91.20
2022-12-19T05:11:19.663Z,85.40
2022-12-19T05:14:22.007Z,82.20
2022-12-19T05:17:24.158Z,87.28
2022-12-19T05:20:26.400Z,90.18
2022-12-19T05:23:28.730Z,71.93
2022-12-19T05:26:30.929Z,95.33
2022-12-19T05:29:33.591Z,85.05
2022-12-19T05:32:35.774Z,73.15
2022-12-19T05:35:38.217Z,83.07
2022-12-19T05:38:40.524Z,76.37
2022-12-19T05:41:46.286Z,84.40
2022-12-19T05:44:50.947Z,78.38
2022-12-19T05:47:55.699Z,79.97
2022-12-19T05:50:59.852Z,76.18
2022-12-19T05:54:02.339Z,83.93
2022-12-19T05:57:04.599Z,89.80
2022-12-19T06:00:07.144Z,81.45
2022-12-19T06:03:14.757Z,76.03
2022-12-19T06:06:18.699Z,86.18
2022-12-19T06:09:21.605Z,86.13
2022-12-19T06:12:24.893Z,82.77
2022-12-19T06:15:27.887Z,87.70
2022-12-19T06:18:31.393Z,87.22
2022-12-19T06:21:34.360Z,78.03
2022-12-19T06:24:37.241Z,83.43
2022-12-19T06:27:40.130Z,74.03
2022-12-19T06:30:43.348Z,78.78
2022-12-19T06:33:46.521Z,76.63
2022-12-19T06:36:49.356Z,74.15
2022-12-19T06:39:52.191Z,88.17
2022-12-19T06:42:55.546Z,85.83
2022-12-19T06:45:58.846Z,80.35
2022-12-19T06:49:01.060Z,81.97
2022-12-19T06:52:08.930Z,73.65
2022-12-19T06:55:13.092Z,69.83
2022-12-19T06:58:18.175Z,83.00
2022-12-19T07:01:23.723Z,70.35
2022-12-19T07:04:34.453Z,49.55
2022-12-19T07:08:18.420Z,52.95
2022-12-19T07:11:31.665Z,39.07
2022-12-19T07:14:41.924Z,37.60
2022-12-19T07:17:45.129Z,50.10
2022-12-19T07:20:48.043Z,39.53
2022-12-19T07:23:50.675Z,48.90
2022-12-19T07:26:54.528Z,46.10
2022-12-19T07:29:57.149Z,50.47
2022-12-19T07:32:59.773Z,40.90
2022-12-19T07:36:02.402Z,35.08
2022-12-19T07:39:08.390Z,35.83
2022-12-19T07:42:11.482Z,30.73
2022-12-19T07:45:14.945Z,36.30
2022-12-19T07:48:17.870Z,29.77
2022-12-19T07:51:20.814Z,39.22
2022-12-19T07:54:28.799Z,39.45
2022-12-19T07:57:35.644Z,38.87
2022-12-19T08:00:39.396Z,32.13
2022-12-19T08:03:41.850Z,40.45
2022-12-19T08:06:48.229Z,40.65
2022-12-19T08:09:58.047Z,39.47
2022-12-19T08:13:00.536Z,38.70
2022-12-19T08:16:03.733Z,39.17
2022-12-19T08:19:06.199Z,43.38
2022-12-19T08:22:08.660Z,37.78
2022-12-19T08:25:11.325Z,35.28
2022-12-19T08:28:15.530Z,33.23
2022-12-19T08:31:18.408Z,29.73
2022-12-19T08:34:20.845Z,26.70
2022-12-19T08:37:23.443Z,34.03
2022-12-19T08:40:28.839Z,35.97
2022-12-19T08:43:31.629Z,34.57
2022-12-19T08:46:34.010Z,36.20
2022-12-19T08:49:37.207Z,32.67
2022-12-19T08:52:39.556Z,24.77
2022-12-19T08:55:43.290Z,28.88
2022-12-19T08:58:47.216Z,34.73
2022-12-19T09:01:51.572Z,36.47
2022-12-19T09:05:59.490Z,36.38
2022-12-19T09:08:17.178Z,34.88
2022-12-19T09:11:23.046Z,30.67
2022-12-19T09:14:25.786Z,29.07
2022-12-19T09:17:28.638Z,34.50
2022-12-19T09:20:35.546Z,32.92
2022-12-19T09:23:38.368Z,37.08
2022-12-19T09:26:42.422Z,28.10
2022-12-19T09:29:47.724Z,33.40
2022-12-19T09:32:50.542Z,32.73
2022-12-19T09:35:55.473Z,36.90
2022-12-19T09:39:00.572Z,31.85
2022-12-19T09:42:17.310Z,34.28
2022-12-19T09:45:27.161Z,30.70
2022-12-19T09:48:36.755Z,31.23
2022-12-19T09:51:44.394Z,28.67
2022-12-19T09:54:53.945Z,33.35
2022-12-19T09:57:56.424Z,25.92
2022-12-19T10:01:02.956Z,23.10
2022-12-19T10:04:13.094Z,19.20
2022-12-19T10:07:40.181Z,34.92
2022-12-19T10:12:36.760Z,34.00
2022-12-19T10:14:16.577Z,26.58
2022-12-19T10:17:26.045Z,28.67
2022-12-19T10:20:30.725Z,31.90
2022-12-19T10:23:36.091Z,28.73
2022-12-19T10:26:44.180Z,40.33
2022-12-19T10:29:52.491Z,38.95
2022-12-19T10:33:03.631Z,33.07
2022-12-19T10:36:09.261Z,33.53
2022-12-19T10:39:38.046Z,29.08
2022-12-19T10:42:55.743Z,33.53
2022-12-19T10:46:02.884Z,30.73
2022-12-19T10:49:19.261Z,31.27
2022-12-19T10:52:40.555Z,25.17
2022-12-19T10:55:43.307Z,31.05
2022-12-19T10:58:46.018Z,25.30
2022-12-19T11:02:00.254Z,37.03
2022-12-19T11:05:23.247Z,36.13
2022-12-19T11:08:35.724Z,32.20
2022-12-19T11:16:17.171Z,29.90
2022-12-19T11:19:31.750Z,37.13
2022-12-19T11:26:27.115Z,28.15
2022-12-19T11:30:06.588Z,30.27
2022-12-19T11:30:48.001Z,25.77
2022-12-19T11:31:49.889Z,32.45
2022-12-19T11:32:49.683Z,25.48
2022-12-19T11:35:54.827Z,37.03
2022-12-19T11:38:57.579Z,33.50
2022-12-19T11:42:04.467Z,34.90
2022-12-19T11:45:13.488Z,29.48
2022-12-19T11:48:20.700Z,30.25
2022-12-19T11:51:37.363Z,30.00
2022-12-19T11:54:48.789Z,35.93
2022-12-19T11:57:55.234Z,33.50
2022-12-19T12:00:58.210Z,30.48
2022-12-19T12:04:12.467Z,32.83
2022-12-19T12:07:23.000Z,31.98
2022-12-19T12:15:52.098Z,28.10
2022-12-19T12:24:12.361Z,29.83
2022-12-19T12:31:00.904Z,24.33
2022-12-19T12:31:05.338Z,28.92
2022-12-19T12:31:39.472Z,38.07
2022-12-19T12:31:40.239Z,29.42
2022-12-19T12:35:33.628Z,27.23
2022-12-19T12:39:01.046Z,29.17
2022-12-19T12:42:09.676Z,31.85
2022-12-19T12:45:23.522Z,29.33
2022-12-19T12:48:35.803Z,29.37
2022-12-19T12:51:38.412Z,30.05
2022-12-19T12:54:42.789Z,31.23
2022-12-19T12:57:45.133Z,27.48
2022-12-19T13:01:07.363Z,31.63
2022-12-19T13:04:14.132Z,34.97
2022-12-19T13:07:26.057Z,35.92
2022-12-19T13:10:31.921Z,34.38
2022-12-19T13:13:50.527Z,35.40
2022-12-19T13:16:53.373Z,33.23
2022-12-19T13:19:58.368Z,37.20
2022-12-19T13:23:07.742Z,30.85
2022-12-19T13:26:32.926Z,29.33
2022-12-19T13:29:51.474Z,32.10
2022-12-19T13:32:53.683Z,36.83
2022-12-19T13:39:43.383Z,33.30
2022-12-19T13:39:56.172Z,40.03
2022-12-19T13:43:25.924Z,32.60
2022-12-19T13:46:46.166Z,31.45
2022-12-19T13:49:48.583Z,36.67
2022-12-19T13:52:51.143Z,36.90
2022-12-19T13:56:00.774Z,39.65
2022-12-19T13:59:04.389Z,42.00
2022-12-19T14:02:07.949Z,33.33
2022-12-19T14:06:14.814Z,38.03
2022-12-19T14:11:26.468Z,32.97
2022-12-19T14:13:57.508Z,36.90
2022-12-19T14:16:16.246Z,32.60
2022-12-19T14:19:18.648Z,39.60
2022-12-19T14:22:25.831Z,39.83
2022-12-19T14:28:21.751Z,39.03
2022-12-19T14:29:04.005Z,36.55
2022-12-19T14:33:39.753Z,33.95
2022-12-19T14:36:07.716Z,40.00
2022-12-19T14:39:22.752Z,35.53
2022-12-19T14:43:58.793Z,35.93
2022-12-19T14:53:51.853Z,34.63
2022-12-19T14:54:04.577Z,40.38
2022-12-19T14:54:30.493Z,42.22
2022-12-19T14:56:59.154Z,40.73
2022-12-19T15:00:02.655Z,35.07
2022-12-19T15:03:12.048Z,37.63
2022-12-19T15:07:05.147Z,39.38
2022-12-19T15:11:03.601Z,37.90
2022-12-19T15:14:55.304Z,38.80
2022-12-19T15:16:45.337Z,38.77
2022-12-19T15:19:48.992Z,43.85
2022-12-19T15:22:51.248Z,40.83
2022-12-19T15:26:09.506Z,31.08
2022-12-19T15:29:16.667Z,38.53
2022-12-19T15:32:23.802Z,36.50
2022-12-19T15:35:26.001Z,35.05
2022-12-19T15:38:28.197Z,39.97
2022-12-19T15:41:30.726Z,39.60
2022-12-19T15:44:37.058Z,31.27
2022-12-19T15:47:39.303Z,41.90
2022-12-19T15:50:42.468Z,45.78
2022-12-19T15:53:45.232Z,42.22
2022-12-19T15:56:49.959Z,39.60
2022-12-19T15:59:52.459Z,37.67
2022-12-19T16:06:17.297Z,42.63
2022-12-19T16:09:24.421Z,44.30
2022-12-19T16:12:37.741Z,40.75
2022-12-19T16:15:40.191Z,44.37
2022-12-19T16:18:42.690Z,47.37
2022-12-19T16:21:45.031Z,52.47
2022-12-19T16:24:47.439Z,40.38
2022-12-19T16:27:57.174Z,51.53
2022-12-19T16:31:00.014Z,48.50
2022-12-19T16:34:02.532Z,42.37
2022-12-19T16:37:04.731Z,45.60
2022-12-19T16:40:07.280Z,36.38
2022-12-19T16:43:18.701Z,44.13
2022-12-19T16:46:22.185Z,35.23
2022-12-19T16:49:24.494Z,42.50
2022-12-19T16:52:26.777Z,38.45
2022-12-19T16:55:28.964Z,41.65
2022-12-19T16:58:31.347Z,43.50
2022-12-19T17:01:33.671Z,37.10
2022-12-19T17:04:35.912Z,37.77
2022-12-19T17:07:38.744Z,39.67
2022-12-19T17:10:44.165Z,43.78
2022-12-19T17:13:48.098Z,41.38
2022-12-19T17:16:53.737Z,41.47
2022-12-19T17:19:56.063Z,39.43
2022-12-19T17:22:58.499Z,37.30
2022-12-19T17:26:01.115Z,45.15
2022-12-19T17:29:03.381Z,39.70
2022-12-19T17:32:08.970Z,44.80
2022-12-19T17:35:16.006Z,41.77
2022-12-19T17:38:18.211Z,43.28
2022-12-19T17:41:20.504Z,36.15
2022-12-19T17:44:22.713Z,44.45
2022-12-19T17:47:25.469Z,47.07
2022-12-19T17:50:29.779Z,40.97
2022-12-19T17:53:32.013Z,42.08
2022-12-19T17:56:34.283Z,44.83
2022-12-19T17:59:36.524Z,37.95
2022-12-19T18:02:39.298Z,41.73
2022-12-19T18:05:41.683Z,49.90
2022-12-19T18:08:44.369Z,35.28
2022-12-19T18:11:47.156Z,45.70
2022-12-19T18:14:49.437Z,40.90
2022-12-19T18:17:52.727Z,39.40
2022-12-19T18:20:55.009Z,42.00
2022-12-19T18:23:57.276Z,41.85
2022-12-19T18:26:59.564Z,44.30
2022-12-19T18:30:01.832Z,44.92
2022-12-19T18:33:05.435Z,40.40
2022-12-19T18:36:08.289Z,28.87
2022-12-19T18:39:18.371Z,43.00
2022-12-19T18:42:20.800Z,49.15
2022-12-19T18:45:24.970Z,44.53
2022-12-19T18:48:29.217Z,46.60
2022-12-19T18:51:31.504Z,50.03
2022-12-19T18:54:33.937Z,47.13
2022-12-19T18:57:36.189Z,44.65
2022-12-19T19:00:39.131Z,42.13
2022-12-19T19:03:43.860Z,49.77
2022-12-19T19:06:51.437Z,44.63
2022-12-19T19:09:54.133Z,44.20
2022-12-19T19:13:16.703Z,45.15
2022-12-19T19:16:20.734Z,48.95
2022-12-19T19:19:23.039Z,47.10
2022-12-19T19:22:25.447Z,55.07
2022-12-19T19:25:28.092Z,38.30
2022-12-19T19:28:30.377Z,35.28
2022-12-19T19:31:34.566Z,42.85
2022-12-19T19:34:38.282Z,52.93
2022-12-19T19:37:41.654Z,42.70
2022-12-19T19:40:43.937Z,43.58
2022-12-19T19:43:46.414Z,43.40
2022-12-19T19:46:48.892Z,42.20
2022-12-19T19:49:51.199Z,49.83
2022-12-19T19:52:53.487Z,51.00
2022-12-19T19:55:56.804Z,30.75
2022-12-19T19:59:00.743Z,46.58
2022-12-19T20:02:03.419Z,50.88
2022-12-19T20:05:06.269Z,46.47
2022-12-19T20:08:08.463Z,41.33
2022-12-19T20:11:11.231Z,45.80
2022-12-19T20:14:13.507Z,50.33
2022-12-19T20:17:15.855Z,43.33
2022-12-19T20:20:18.109Z,43.90
2022-12-19T20:23:20.348Z,41.43
2022-12-19T20:26:22.590Z,49.17
2022-12-19T20:29:25.087Z,49.58
2022-12-19T20:32:27.395Z,52.85
2022-12-19T20:35:29.576Z,48.93
2022-12-19T20:38:31.774Z,53.90
2022-12-19T20:41:34.066Z,57.67
2022-12-19T20:44:36.618Z,45.10
2022-12-19T20:47:38.927Z,50.63
2022-12-19T20:50:43.173Z,51.63
2022-12-19T20:53:45.946Z,42.00
2022-12-19T20:56:48.368Z,48.20
2022-12-19T20:59:50.694Z,51.10
2022-12-19T21:03:26.465Z,55.88
2022-12-19T21:06:17.003Z,56.03
2022-12-19T21:09:19.245Z,52.53
2022-12-19T21:12:21.844Z,48.58
2022-12-19T21:15:24.021Z,50.75
2022-12-19T21:18:26.433Z,57.15
2022-12-19T21:21:28.727Z,38.43
2022-12-19T21:24:33.036Z,48.10
2022-12-19T21:27:35.274Z,57.45
2022-12-19T21:30:37.779Z,53.00
2022-12-19T21:33:40.154Z,49.13
2022-12-19T21:36:42.731Z,54.83
2022-12-19T21:39:44.963Z,53.27
2022-12-19T21:42:47.592Z,68.78
2022-12-19T21:45:50.224Z,56.17
2022-12-19T21:48:53.659Z,53.53
2022-12-19T21:51:55.874Z,58.83
2022-12-19T21:54:58.065Z,47.23
2022-12-19T21:58:00.280Z,56.65
2022-12-19T22:01:10.523Z,57.88
2022-12-19T22:04:14.765Z,51.55
2022-12-19T22:07:17.067Z,62.87
2022-12-19T22:10:19.311Z,56.30
2022-12-19T22:13:21.613Z,50.92
2022-12-19T22:16:23.967Z,58.20
2022-12-19T22:19:26.207Z,54.67
2022-12-19T22:22:28.426Z,54.30
2022-12-19T22:25:30.702Z,68.33
2022-12-19T22:28:34.749Z,62.78
2022-12-19T22:31:38.269Z,56.50
2022-12-19T22:34:40.547Z,67.55
2022-12-19T22:37:43.898Z,54.47
2022-12-19T22:40:46.233Z,59.60
2022-12-19T22:43:48.679Z,58.25
2022-12-19T22:46:51.693Z,54.35
2022-12-19T22:49:53.946Z,62.47
2022-12-19T22:52:56.216Z,55.83
2022-12-19T22:56:06.252Z,62.60
2022-12-19T22:59:08.961Z,59.13
2022-12-19T23:02:11.433Z,61.03
2022-12-19T23:05:13.746Z,58.47
2022-12-19T23:08:15.939Z,57.20
2022-12-19T23:11:19.672Z,63.83
2022-12-19T23:14:21.869Z,59.83
2022-12-19T23:17:24.181Z,54.08
2022-12-19T23:20:26.379Z,55.20
2022-12-19T23:23:28.658Z,59.63
2022-12-19T23:26:32.250Z,53.70
2022-12-19T23:29:34.459Z,56.95
2022-12-19T23:32:36.728Z,49.92
2022-12-19T23:35:39.046Z,51.95
2022-12-19T23:38:43.325Z,60.77
2022-12-19T23:41:45.879Z,55.80
2022-12-19T23:44:48.142Z,59.67
2022-12-19T23:47:50.290Z,57.05
2022-12-19T23:51:03.242Z,58.30
2022-12-19T23:54:05.736Z,52.97
2022-12-19T23:57:07.954Z,60.97
